Time;durP1;ratioP1;P1;durP2;ratioP2;P2;SDS_P1;SDS_P2;PMS_P1;PMS_P2;Temp;Humidity;BMP_temperature;BMP_pressure;BME280_temperature;BME280_humidity;BME280_pressure;Samples;Min_cycle;Max_cycle;Signal;HPM_P1;HPM_P2
2021/04/05 00:01:33;;;;;;;57.90;22.92;;;2.60;99.90;;;;;;5051706;28;20029;-51
2021/04/05 00:03:59;;;;;;;56.80;20.92;;;2.60;99.90;;;;;;5051791;28;20029;-52
2021/04/05 00:06:25;;;;;;;47.53;21.02;;;2.60;99.90;;;;;;5047886;28;20079;-50
2021/04/05 00:08:51;;;;;;;51.95;20.92;;;2.50;99.90;;;;;;5046825;28;20403;-52
2021/04/05 00:11:18;;;;;;;48.60;20.98;;;2.50;99.90;;;;;;5053373;28;20070;-50
2021/04/05 00:13:44;;;;;;;49.67;21.63;;;2.50;99.90;;;;;;5045501;28;20047;-53
2021/04/05 00:16:11;;;;;;;59.75;21.63;;;2.50;99.90;;;;;;5052324;28;20032;-54
2021/04/05 00:18:37;;;;;;;56.58;21.13;;;2.50;99.90;;;;;;5049518;28;20549;-53
2021/04/05 00:21:10;;;;;;;54.40;21.20;;;2.40;99.90;;;;;;5055636;28;20055;-52
2021/04/05 00:23:36;;;;;;;53.53;20.42;;;2.40;99.90;;;;;;5047551;28;20086;-53
2021/04/05 00:26:03;;;;;;;59.85;20.85;;;2.50;99.90;;;;;;5056578;28;20040;-51
2021/04/05 00:28:29;;;;;;;55.05;21.23;;;2.50;99.90;;;;;;5044335;28;20021;-53
2021/04/05 00:30:55;;;;;;;49.42;22.08;;;2.60;99.90;;;;;;5051277;28;20027;-54
2021/04/05 00:33:21;;;;;;;61.28;22.85;;;2.70;99.90;;;;;;5051337;28;20058;-50
2021/04/05 00:35:48;;;;;;;55.17;23.13;;;2.80;99.90;;;;;;5051388;28;20044;-53
2021/04/05 00:38:14;;;;;;;70.18;25.23;;;2.90;99.90;;;;;;5050587;28;20100;-51
2021/04/05 00:40:42;;;;;;;56.83;23.52;;;2.90;99.90;;;;;;5047378;28;20029;-55
2021/04/05 00:43:10;;;;;;;59.15;23.75;;;2.90;99.90;;;;;;5053666;28;20033;-53
2021/04/05 00:45:36;;;;;;;61.47;23.73;;;3.00;99.90;;;;;;5050930;28;20033;-54
2021/04/05 00:48:04;;;;;;;59.00;24.17;;;3.10;99.90;;;;;;5046308;28;20101;-50
2021/04/05 00:50:32;;;;;;;56.25;23.25;;;3.10;99.90;;;;;;5050859;28;20021;-53
2021/04/05 00:52:59;;;;;;;57.85;23.90;;;3.10;99.90;;;;;;5051354;28;20107;-51
2021/04/05 00:55:25;;;;;;;61.42;23.98;;;3.10;99.90;;;;;;5049194;28;20087;-53
2021/04/05 00:57:51;;;;;;;46.15;21.23;;;3.10;99.90;;;;;;5053877;28;20060;-53
2021/04/05 01:00:49;;;;;;;54.05;21.55;;;2.90;99.90;;;;;;5048228;28;20498;-52
2021/04/05 01:03:18;;;;;;;55.83;21.60;;;2.80;99.90;;;;;;5045239;28;20032;-52
2021/04/05 01:05:45;;;;;;;65.88;24.42;;;2.70;99.90;;;;;;5051203;28;20052;-51
2021/04/05 01:08:14;;;;;;;55.72;22.25;;;2.70;99.90;;;;;;5050671;28;20515;-53
2021/04/05 01:10:39;;;;;;;61.90;24.83;;;2.70;99.90;;;;;;5049998;28;20029;-52
2021/04/05 01:13:06;;;;;;;54.53;21.17;;;2.70;99.90;;;;;;5048888;28;20040;-51
2021/04/05 01:15:32;;;;;;;62.40;23.52;;;2.70;99.90;;;;;;5049650;28;20025;-52
2021/04/05 01:17:58;;;;;;;69.30;24.20;;;2.80;99.90;;;;;;5047248;28;20024;-51
2021/04/05 01:20:24;;;;;;;65.43;23.63;;;2.80;99.90;;;;;;5046822;28;20426;-50
2021/04/05 01:22:51;;;;;;;55.85;24.45;;;2.80;99.90;;;;;;5046129;28;20025;-53
2021/04/05 01:25:18;;;;;;;69.40;24.08;;;2.90;99.90;;;;;;5050179;28;20104;-54
2021/04/05 01:27:45;;;;;;;56.63;22.08;;;2.90;99.90;;;;;;5051238;28;20013;-50
2021/04/05 01:30:32;;;;;;;57.55;22.70;;;3.00;99.90;;;;;;5044344;28;20028;-52
2021/04/05 01:33:11;;;;;;;51.55;22.48;;;3.00;99.90;;;;;;5051237;28;20017;-53
2021/04/05 01:35:47;;;;;;;64.90;25.40;;;3.00;99.90;;;;;;5050534;28;20507;-55
2021/04/05 01:38:16;;;;;;;60.60;23.42;;;3.10;99.90;;;;;;5050718;28;20052;-49
2021/04/05 01:40:45;;;;;;;66.47;25.55;;;3.10;99.90;;;;;;5049621;28;20166;-52
2021/04/05 01:43:11;;;;;;;63.75;23.30;;;3.10;99.90;;;;;;5052266;28;20111;-51
2021/04/05 01:45:37;;;;;;;59.33;23.13;;;3.20;99.90;;;;;;5047024;28;20029;-53
2021/04/05 01:48:03;;;;;;;57.75;23.52;;;3.20;99.90;;;;;;5051227;28;20041;-53
2021/04/05 01:50:29;;;;;;;66.43;22.65;;;3.20;99.90;;;;;;5049742;28;20021;-53
2021/04/05 01:52:54;;;;;;;66.90;23.90;;;3.20;99.90;;;;;;5050366;28;20063;-52
2021/04/05 01:55:20;;;;;;;56.63;23.25;;;3.30;99.90;;;;;;5048463;28;20112;-52
2021/04/05 01:57:47;;;;;;;54.45;23.45;;;3.30;99.90;;;;;;5049864;28;20044;-50
2021/04/05 02:00:19;;;;;;;58.72;23.77;;;3.40;99.90;;;;;;5050185;28;20398;-53
2021/04/05 02:02:44;;;;;;;58.00;24.25;;;3.40;99.90;;;;;;5049686;28;20025;-52
2021/04/05 02:05:10;;;;;;;57.03;23.80;;;3.50;99.90;;;;;;5050354;28;20036;-54
2021/04/05 02:07:37;;;;;;;56.75;23.15;;;3.50;99.90;;;;;;5050369;28;20111;-52
2021/04/05 02:10:12;;;;;;;57.55;22.92;;;3.40;99.90;;;;;;5043612;28;20057;-51
2021/04/05 02:12:39;;;;;;;56.58;23.77;;;3.40;99.90;;;;;;5042137;28;20021;-51
2021/04/05 02:15:09;;;;;;;55.70;24.17;;;3.40;99.90;;;;;;5046129;28;20661;-50
2021/04/05 02:17:35;;;;;;;52.85;22.17;;;3.30;99.90;;;;;;5044557;28;20024;-53
2021/04/05 02:20:00;;;;;;;61.13;21.35;;;3.10;99.90;;;;;;5049105;28;20028;-53
2021/04/05 02:22:26;;;;;;;55.38;23.88;;;3.00;99.90;;;;;;5043253;28;20104;-53
2021/04/05 02:24:52;;;;;;;55.85;22.92;;;3.00;99.90;;;;;;5049737;28;20042;-53
2021/04/05 02:27:18;;;;;;;57.83;22.00;;;3.00;99.90;;;;;;5051222;28;20029;-55
2021/04/05 02:29:44;;;;;;;50.90;22.65;;;3.10;99.90;;;;;;5050389;28;20025;-54
2021/04/05 02:32:10;;;;;;;47.17;20.85;;;3.10;99.90;;;;;;5042793;28;20036;-52
2021/04/05 02:34:36;;;;;;;74.22;23.48;;;3.10;99.90;;;;;;5044407;28;20017;-51
2021/04/05 02:37:02;;;;;;;56.05;22.48;;;3.10;99.90;;;;;;5044823;28;20033;-52
2021/04/05 02:39:27;;;;;;;61.63;24.73;;;3.10;99.90;;;;;;5048405;28;20107;-56
2021/04/05 02:41:53;;;;;;;66.43;26.85;;;3.00;99.90;;;;;;5049241;28;20028;-53
2021/04/05 02:44:19;;;;;;;72.00;24.52;;;3.10;99.90;;;;;;5043266;28;20087;-51
2021/04/05 02:46:47;;;;;;;68.82;25.30;;;3.20;99.90;;;;;;5049280;28;20036;-50
2021/04/05 02:49:15;;;;;;;69.25;23.67;;;3.30;99.90;;;;;;5047604;28;20048;-50
2021/04/05 02:51:47;;;;;;;64.90;26.35;;;3.30;99.90;;;;;;5045425;28;20036;-52
2021/04/05 02:54:16;;;;;;;65.30;24.17;;;3.30;99.90;;;;;;5049430;28;20029;-54
2021/04/05 02:56:42;;;;;;;61.03;25.60;;;3.40;99.90;;;;;;5048878;28;20014;-50
2021/04/05 02:59:09;;;;;;;71.35;25.52;;;3.30;99.90;;;;;;5045156;28;20044;-50
2021/04/05 03:01:37;;;;;;;65.47;25.90;;;3.40;99.90;;;;;;5053261;28;20017;-53
2021/04/05 03:04:03;;;;;;;65.20;24.60;;;3.40;99.90;;;;;;5049197;28;20036;-53
2021/04/05 03:06:29;;;;;;;69.60;25.15;;;3.50;99.90;;;;;;5049349;28;20028;-52
2021/04/05 03:08:59;;;;;;;68.35;24.50;;;3.50;99.90;;;;;;5042910;28;20435;-54
2021/04/05 03:11:25;;;;;;;75.30;25.90;;;3.50;99.90;;;;;;5047151;28;20032;-53
2021/04/05 03:13:51;;;;;;;60.38;23.08;;;3.50;99.90;;;;;;5048891;28;20031;-54
2021/04/05 03:16:20;;;;;;;55.03;23.92;;;3.60;99.90;;;;;;5048650;28;20013;-56
2021/04/05 03:18:47;;;;;;;65.22;25.23;;;3.70;99.90;;;;;;5041849;28;20048;-54
2021/04/05 03:21:15;;;;;;;61.25;26.05;;;3.70;99.90;;;;;;5051818;28;20456;-51
2021/04/05 03:23:42;;;;;;;71.22;26.15;;;3.70;99.90;;;;;;5049373;28;20060;-54
2021/04/05 03:26:10;;;;;;;63.53;26.02;;;3.70;99.90;;;;;;5048460;28;20517;-54
2021/04/05 03:28:36;;;;;;;70.10;27.27;;;3.70;99.90;;;;;;5046883;28;20161;-54
2021/04/05 03:31:04;;;;;;;67.45;25.08;;;3.80;99.90;;;;;;5048794;28;20523;-55
2021/04/05 03:33:30;;;;;;;58.50;26.67;;;3.90;99.90;;;;;;5049117;28;20402;-51
2021/04/05 03:35:59;;;;;;;63.30;25.17;;;3.90;99.90;;;;;;5050666;28;20100;-56
2021/04/05 03:38:25;;;;;;;70.15;25.25;;;3.90;99.90;;;;;;5046292;28;20033;-51
2021/04/05 03:40:52;;;;;;;67.70;25.85;;;3.80;99.90;;;;;;5048433;28;20324;-50
2021/04/05 03:43:35;;;;;;;65.13;26.85;;;3.80;99.90;;;;;;5048870;28;20025;-53
2021/04/05 03:46:05;;;;;;;63.95;26.55;;;3.70;99.90;;;;;;5050402;28;20029;-51
2021/04/05 03:48:48;;;;;;;58.05;23.73;;;3.60;99.90;;;;;;5049228;28;20028;-50
2021/04/05 03:51:26;;;;;;;65.82;26.33;;;3.60;99.90;;;;;;5052666;28;20028;-50
2021/04/05 03:54:12;;;;;;;65.32;25.13;;;3.70;99.90;;;;;;5050000;28;20017;-53
2021/04/05 03:56:42;;;;;;;61.38;23.48;;;3.70;99.90;;;;;;5041054;28;20515;-51
2021/04/05 03:59:12;;;;;;;62.58;25.67;;;3.80;99.90;;;;;;5044704;28;20037;-54
2021/04/05 04:01:47;;;;;;;58.55;25.02;;;4.00;99.90;;;;;;5046251;28;20029;-54
2021/04/05 04:04:39;;;;;;;55.67;25.08;;;4.10;99.90;;;;;;5051933;28;20397;-52
2021/04/05 04:09:32;;;;;;;52.42;23.02;;;4.30;99.90;;;;;;5055372;28;20048;-50
2021/04/05 04:11:59;;;;;;;64.22;23.58;;;4.40;99.90;;;;;;5043306;28;20033;-53
2021/04/05 04:14:26;;;;;;;66.13;24.75;;;4.40;99.90;;;;;;5052082;28;20048;-50
2021/04/05 04:16:53;;;;;;;76.32;25.27;;;4.60;99.90;;;;;;5051673;28;20025;-50
2021/04/05 04:19:20;;;;;;;73.78;26.15;;;4.80;99.90;;;;;;5051489;28;20060;-51
2021/04/05 04:21:47;;;;;;;67.88;25.10;;;5.20;99.90;;;;;;5051802;28;20021;-54
2021/04/05 04:24:14;;;;;;;62.22;24.17;;;5.70;99.90;;;;;;5048391;28;20086;-54
2021/04/05 04:26:41;;;;;;;55.05;21.60;;;5.80;99.90;;;;;;5051823;28;20426;-51
2021/04/05 04:29:18;;;;;;;62.75;23.50;;;6.00;99.90;;;;;;5051681;28;20063;-54
2021/04/05 04:31:44;;;;;;;62.42;22.33;;;6.40;99.90;;;;;;5052485;28;20033;-53
2021/04/05 04:34:14;;;;;;;61.53;23.23;;;6.50;99.90;;;;;;5049802;28;20118;-53
2021/04/05 04:36:40;;;;;;;47.50;20.70;;;6.50;99.90;;;;;;5044118;28;20036;-53
2021/04/05 04:39:06;;;;;;;52.15;21.88;;;6.50;99.90;;;;;;5051037;28;20178;-52
2021/04/05 04:41:31;;;;;;;54.15;21.83;;;6.60;99.90;;;;;;5053645;28;20029;-52
2021/04/05 04:44:02;;;;;;;63.83;22.90;;;6.70;99.90;;;;;;5052463;28;20035;-53
2021/04/05 04:46:28;;;;;;;60.53;21.90;;;6.80;99.90;;;;;;5050536;28;20538;-52
2021/04/05 04:49:02;;;;;;;60.75;21.42;;;6.90;99.90;;;;;;5051097;28;20099;-53
2021/04/05 04:51:28;;;;;;;68.68;25.23;;;6.90;99.90;;;;;;5057492;28;20020;-51
2021/04/05 04:53:56;;;;;;;60.63;21.58;;;6.80;99.90;;;;;;5045186;28;20670;-53
2021/04/05 04:56:22;;;;;;;55.92;20.70;;;6.90;99.90;;;;;;5047780;28;20025;-55
2021/04/05 04:58:48;;;;;;;65.95;22.33;;;6.90;99.90;;;;;;5046671;28;20446;-53
2021/04/05 05:01:14;;;;;;;55.95;20.90;;;6.90;99.90;;;;;;5054844;28;20021;-50
2021/04/05 05:03:53;;;;;;;60.75;21.50;;;6.90;99.90;;;;;;5053799;28;20433;-51
2021/04/05 05:06:21;;;;;;;62.22;21.83;;;6.90;99.90;;;;;;5051278;28;20065;-55
2021/04/05 05:08:47;;;;;;;56.42;22.40;;;7.00;99.90;;;;;;5048018;28;20112;-54
2021/04/05 05:11:14;;;;;;;61.45;23.65;;;7.00;99.90;;;;;;5058256;28;20087;-50
2021/04/05 05:13:40;;;;;;;55.88;21.45;;;7.00;99.90;;;;;;5056462;28;20017;-54
2021/04/05 05:16:06;;;;;;;59.05;24.70;;;7.00;99.90;;;;;;5053176;28;20045;-51
2021/04/05 05:18:34;;;;;;;69.80;23.45;;;7.00;99.90;;;;;;5051750;28;20032;-53
2021/04/05 05:21:08;;;;;;;58.28;23.20;;;7.00;99.90;;;;;;5051225;28;20040;-54
2021/04/05 05:23:36;;;;;;;54.67;23.77;;;7.10;99.90;;;;;;5056198;28;20028;-54
2021/04/05 05:26:04;;;;;;;64.40;24.13;;;7.10;99.90;;;;;;5053609;28;20017;-50
2021/04/05 05:28:33;;;;;;;59.10;23.35;;;7.00;99.90;;;;;;5052418;28;20033;-51
2021/04/05 05:31:00;;;;;;;72.30;25.17;;;7.00;99.90;;;;;;5050040;28;20108;-54
2021/04/05 05:33:26;;;;;;;62.05;25.15;;;7.00;99.90;;;;;;5045567;28;20056;-55
2021/04/05 05:35:52;;;;;;;62.08;25.58;;;7.00;99.90;;;;;;5049931;28;20052;-51
2021/04/05 05:38:22;;;;;;;61.75;24.13;;;7.10;99.90;;;;;;5048738;28;20067;-51
2021/04/05 05:40:48;;;;;;;60.22;25.98;;;7.10;99.90;;;;;;5044464;28;20033;-53
2021/04/05 05:43:46;;;;;;;61.97;26.08;;;7.10;99.90;;;;;;5063210;28;20077;-52
2021/04/05 05:46:15;;;;;;;60.25;24.73;;;7.10;99.90;;;;;;5053371;28;20032;-55
2021/04/05 05:48:49;;;;;;;71.32;25.15;;;7.10;99.90;;;;;;5050571;28;20037;-54
2021/04/05 05:51:30;;;;;;;77.13;29.30;;;7.10;99.90;;;;;;5057481;28;20086;-54
2021/04/05 05:54:12;;;;;;;78.32;27.10;;;7.10;99.90;;;;;;5053851;28;20518;-52
2021/04/05 05:56:56;;;;;;;61.22;26.33;;;7.10;99.90;;;;;;5045618;28;20017;-50
2021/04/05 05:59:42;;;;;;;71.47;25.90;;;7.00;99.90;;;;;;5052180;28;20024;-51
2021/04/05 06:02:35;;;;;;;61.15;28.23;;;7.00;99.90;;;;;;5054330;28;20415;-53
2021/04/05 06:05:22;;;;;;;68.35;28.10;;;7.00;99.90;;;;;;5044974;28;20428;-49
2021/04/05 06:08:07;;;;;;;70.60;26.00;;;7.10;99.90;;;;;;5048558;28;20056;-52
2021/04/05 06:11:03;;;;;;;78.10;25.90;;;7.10;99.90;;;;;;5040381;28;20035;-52
2021/04/05 06:13:41;;;;;;;74.10;26.65;;;7.10;99.90;;;;;;5051025;28;20036;-52
2021/04/05 06:16:35;;;;;;;72.60;27.40;;;7.10;99.90;;;;;;5045894;28;20025;-52
2021/04/05 06:19:27;;;;;;;72.68;28.95;;;7.10;99.90;;;;;;5049160;28;20025;-51
2021/04/05 06:22:07;;;;;;;70.38;27.75;;;7.10;99.90;;;;;;5048996;28;20558;-51
2021/04/05 06:24:45;;;;;;;72.70;27.20;;;7.10;99.90;;;;;;5052292;28;20062;-52
2021/04/05 06:27:20;;;;;;;67.85;29.13;;;7.10;99.90;;;;;;5054111;28;20033;-51
2021/04/05 06:30:02;;;;;;;78.88;29.60;;;7.10;99.90;;;;;;5055676;28;20031;-53
2021/04/05 06:33:01;;;;;;;69.90;29.80;;;7.00;99.90;;;;;;5050281;28;20032;-53
2021/04/05 06:35:35;;;;;;;71.65;28.73;;;7.10;99.90;;;;;;5048766;28;20036;-50
2021/04/05 06:38:10;;;;;;;65.57;28.90;;;7.10;99.90;;;;;;5047969;28;20478;-50
2021/04/05 06:40:38;;;;;;;70.65;28.40;;;7.10;99.90;;;;;;5049578;28;20040;-52
2021/04/05 06:43:15;;;;;;;70.85;28.75;;;7.10;99.90;;;;;;5048901;28;20035;-52
2021/04/05 06:46:03;;;;;;;66.40;28.05;;;7.00;99.90;;;;;;5049601;28;20516;-53
2021/04/05 06:48:58;;;;;;;77.18;29.08;;;7.00;99.90;;;;;;5047622;28;20111;-51
2021/04/05 06:51:48;;;;;;;65.68;29.70;;;7.00;99.90;;;;;;5045708;28;20411;-52
2021/04/05 06:54:32;;;;;;;69.85;27.63;;;7.00;99.90;;;;;;5044956;28;20025;-52
2021/04/05 06:57:12;;;;;;;86.88;32.22;;;6.90;99.90;;;;;;5049988;28;20031;-49
2021/04/05 06:59:50;;;;;;;74.90;29.50;;;6.80;99.90;;;;;;5049150;28;20159;-49
2021/04/05 07:02:36;;;;;;;77.07;31.30;;;6.70;99.90;;;;;;5054109;28;20119;-51
2021/04/05 07:05:33;;;;;;;74.85;29.92;;;6.70;99.90;;;;;;5042051;28;20029;-52
2021/04/05 07:08:13;;;;;;;74.05;31.42;;;6.60;99.90;;;;;;5045601;28;20018;-50
2021/04/05 07:10:59;;;;;;;74.30;33.22;;;6.60;99.90;;;;;;5049085;28;20045;-52
2021/04/05 07:13:32;;;;;;;79.85;33.97;;;6.60;99.90;;;;;;5045215;28;20096;-52
2021/04/05 07:16:09;;;;;;;84.78;32.50;;;6.50;99.90;;;;;;5050099;28;20075;-51
2021/04/05 07:18:51;;;;;;;80.10;34.85;;;6.50;99.90;;;;;;5053072;28;20032;-53
2021/04/05 07:21:44;;;;;;;84.60;36.55;;;6.40;99.90;;;;;;5054350;28;20112;-53
2021/04/05 07:24:31;;;;;;;97.28;38.58;;;6.30;99.90;;;;;;5052510;28;20429;-48
2021/04/05 07:27:15;;;;;;;95.07;36.30;;;6.30;99.90;;;;;;5062349;28;20028;-51
2021/04/05 07:29:46;;;;;;;93.28;37.80;;;6.30;99.90;;;;;;5050165;28;20041;-50
2021/04/05 07:32:38;;;;;;;150.02;41.45;;;6.30;99.90;;;;;;5052576;28;20024;-50
2021/04/05 07:35:17;;;;;;;96.05;35.90;;;6.30;99.90;;;;;;5054039;28;20086;-53
2021/04/05 07:38:02;;;;;;;99.13;37.50;;;6.30;99.90;;;;;;5055207;28;20021;-51
2021/04/05 07:40:53;;;;;;;95.63;37.95;;;6.30;99.90;;;;;;5056134;28;20021;-51
2021/04/05 07:43:45;;;;;;;106.45;38.85;;;6.30;99.90;;;;;;5053095;28;20506;-52
2021/04/05 07:46:36;;;;;;;91.38;36.33;;;6.40;99.90;;;;;;5057514;28;20033;-51
2021/04/05 07:49:15;;;;;;;94.63;35.53;;;6.40;99.90;;;;;;5025568;28;20045;-52
2021/04/05 07:51:50;;;;;;;84.55;33.58;;;6.50;99.90;;;;;;5046370;28;20116;-54
2021/04/05 07:54:19;;;;;;;96.20;36.22;;;6.50;99.90;;;;;;5051645;28;20033;-51
2021/04/05 07:56:49;;;;;;;81.78;34.95;;;6.60;99.90;;;;;;5052820;28;20111;-49
2021/04/05 07:59:37;;;;;;;79.03;35.70;;;6.60;99.90;;;;;;5052921;28;20048;-50
2021/04/05 08:02:24;;;;;;;92.40;35.22;;;6.60;99.90;;;;;;5049793;28;20033;-51
2021/04/05 08:05:12;;;;;;;88.70;35.17;;;6.60;99.90;;;;;;5044018;28;20099;-52
2021/04/05 08:08:22;;;;;;;76.60;33.25;;;6.70;99.90;;;;;;5046462;28;20028;-50
2021/04/05 08:11:31;;;;;;;87.85;33.00;;;6.80;99.90;;;;;;5048584;28;20108;-52
2021/04/05 08:14:19;;;;;;;77.85;32.75;;;6.80;99.90;;;;;;5004913;28;20072;-50
2021/04/05 08:17:22;;;;;;;71.03;32.78;;;6.90;99.90;;;;;;5054062;28;20039;-53
2021/04/05 08:20:23;;;;;;;71.20;31.67;;;6.90;99.90;;;;;;5051743;28;20112;-51
2021/04/05 08:23:01;;;;;;;72.03;32.65;;;7.00;99.90;;;;;;5045817;28;20053;-52
2021/04/05 08:25:45;;;;;;;75.57;31.40;;;7.00;99.90;;;;;;5043579;28;20144;-54
2021/04/05 08:28:19;;;;;;;77.45;31.67;;;7.10;99.90;;;;;;5059316;28;20144;-49
2021/04/05 08:31:10;;;;;;;72.18;30.30;;;7.10;99.90;;;;;;5045916;28;20025;-49
2021/04/05 08:33:39;;;;;;;68.05;27.90;;;7.20;99.90;;;;;;5042095;28;20032;-51
2021/04/05 08:36:24;;;;;;;75.15;30.40;;;7.40;99.90;;;;;;5050605;28;20104;-52
2021/04/05 08:39:00;;;;;;;67.70;29.73;;;7.40;99.90;;;;;;5052136;28;20086;-54
2021/04/05 08:41:43;;;;;;;63.65;28.92;;;7.50;99.90;;;;;;5050656;28;20297;-49
2021/04/05 08:44:14;;;;;;;40.53;16.70;;;7.50;99.90;;;;;;5043735;28;20550;-51
2021/04/05 08:46:40;;;;;;;25.58;10.98;;;7.20;99.90;;;;;;5041647;28;20029;-49
2021/04/05 08:49:15;;;;;;;22.98;9.30;;;6.60;99.90;;;;;;5045744;28;20040;-49
2021/04/05 08:51:48;;;;;;;20.20;8.35;;;6.20;99.90;;;;;;5044121;28;20029;-49
2021/04/05 08:54:18;;;;;;;21.80;7.50;;;6.00;99.90;;;;;;5045789;28;20805;-52
2021/04/05 08:56:52;;;;;;;15.10;7.22;;;5.90;99.90;;;;;;5053972;28;20027;-53
2021/04/05 08:59:39;;;;;;;21.77;7.18;;;5.80;99.90;;;;;;5045608;28;20112;-51
2021/04/05 09:02:20;;;;;;;21.42;6.93;;;5.70;99.90;;;;;;5043337;28;20041;-53
2021/04/05 09:04:48;;;;;;;16.65;6.32;;;5.70;99.90;;;;;;5022667;28;20031;-49
2021/04/05 09:07:34;;;;;;;18.52;6.00;;;5.70;99.90;;;;;;5043699;28;20052;-54
2021/04/05 09:10:08;;;;;;;16.42;5.47;;;5.60;99.90;;;;;;5043680;28;20028;-50
2021/04/05 09:12:35;;;;;;;19.15;7.43;;;5.50;99.90;;;;;;5045100;28;20047;-50
2021/04/05 09:15:16;;;;;;;15.55;6.72;;;5.50;99.90;;;;;;5042912;28;20040;-51
2021/04/05 09:18:19;;;;;;;19.42;7.90;;;5.50;99.90;;;;;;5043680;28;20025;-49
2021/04/05 09:21:12;;;;;;;12.45;5.75;;;5.50;99.90;;;;;;5059523;28;20095;-49
2021/04/05 09:23:46;;;;;;;16.40;6.93;;;5.40;99.90;;;;;;5048404;28;20037;-48
2021/04/05 09:26:45;;;;;;;12.88;5.50;;;5.40;99.90;;;;;;5053197;28;20487;-48
2021/04/05 09:29:26;;;;;;;12.43;5.45;;;5.40;99.90;;;;;;5047659;28;20120;-53
2021/04/05 09:32:08;;;;;;;14.25;4.85;;;5.30;99.90;;;;;;5048466;28;20108;-49
2021/04/05 09:34:45;;;;;;;10.25;3.42;;;5.40;99.90;;;;;;5052171;28;20385;-51
2021/04/05 09:37:32;;;;;;;10.63;4.32;;;5.30;99.90;;;;;;5054864;28;20027;-53
2021/04/05 09:40:15;;;;;;;14.57;4.97;;;5.30;99.90;;;;;;5049428;28;20040;-53
2021/04/05 09:42:55;;;;;;;14.95;5.53;;;5.40;99.90;;;;;;5053377;28;20738;-52
2021/04/05 09:45:45;;;;;;;12.82;5.80;;;5.40;99.90;;;;;;5049351;28;20056;-53
2021/04/05 09:48:27;;;;;;;22.88;6.55;;;5.40;99.90;;;;;;5054682;28;20399;-53
2021/04/05 09:51:11;;;;;;;12.02;4.65;;;5.40;99.90;;;;;;5054768;28;20072;-48
2021/04/05 09:53:43;;;;;;;7.07;2.10;;;5.40;99.90;;;;;;5053963;28;20024;-52
2021/04/05 09:56:13;;;;;;;6.38;2.03;;;5.20;99.90;;;;;;5047804;28;20558;-52
2021/04/05 09:58:45;;;;;;;6.57;2.05;;;5.10;99.90;;;;;;5044011;28;20482;-54
2021/04/05 10:01:20;;;;;;;6.40;3.42;;;5.00;99.90;;;;;;5049825;28;20067;-51
2021/04/05 10:03:50;;;;;;;8.60;4.65;;;4.80;99.90;;;;;;5033402;28;20056;-49
2021/04/05 10:06:18;;;;;;;6.82;3.80;;;4.60;99.90;;;;;;5050044;28;20032;-52
2021/04/05 10:08:47;;;;;;;9.98;4.45;;;4.30;99.90;;;;;;5050656;28;20398;-55
2021/04/05 10:11:14;;;;;;;8.05;4.40;;;4.30;99.90;;;;;;5047832;28;20045;-51
2021/04/05 10:13:47;;;;;;;7.50;2.30;;;4.20;99.90;;;;;;5042840;28;20056;-50
2021/04/05 10:16:15;;;;;;;4.90;2.40;;;4.20;99.90;;;;;;5044474;28;20033;-50
2021/04/05 10:18:57;;;;;;;8.48;1.90;;;4.10;99.90;;;;;;5052012;28;20505;-52
2021/04/05 10:21:24;;;;;;;5.85;1.42;;;3.90;99.90;;;;;;5049310;28;20025;-52
2021/04/05 10:23:52;;;;;;;16.05;1.88;;;3.90;99.90;;;;;;5046571;28;20032;-52
2021/04/05 10:26:20;;;;;;;13.40;2.10;;;3.80;99.90;;;;;;5050354;28;20025;-49
2021/04/05 10:28:47;;;;;;;10.10;1.67;;;3.70;99.90;;;;;;5056622;28;20367;-49
2021/04/05 10:31:21;;;;;;;15.52;2.13;;;3.70;99.90;;;;;;5053114;28;20052;-49
2021/04/05 10:33:49;;;;;;;;;;;3.60;99.90;;;;;;5048779;28;20264;-52
2021/04/05 10:36:20;;;;;;;12.35;1.80;;;3.60;99.90;;;;;;5048956;28;19967;-51
2021/04/05 10:38:46;;;;;;;17.08;1.92;;;3.60;99.90;;;;;;5047262;28;20040;-51
2021/04/05 10:41:16;;;;;;;22.00;2.75;;;3.60;99.90;;;;;;5057396;28;20492;-52
2021/04/05 10:43:41;;;;;;;14.45;2.38;;;3.60;99.90;;;;;;5053684;28;20025;-51
2021/04/05 10:46:17;;;;;;;18.08;2.20;;;3.60;99.90;;;;;;5044089;28;20048;-49
2021/04/05 10:48:55;;;;;;;15.20;2.25;;;3.60;99.90;;;;;;5046714;28;20024;-52
2021/04/05 10:51:25;;;;;;;21.95;3.08;;;3.60;99.90;;;;;;5045188;28;20029;-53
2021/04/05 10:54:09;;;;;;;15.73;3.13;;;3.70;99.90;;;;;;5040351;28;20025;-53
2021/04/05 10:56:47;;;;;;;17.52;2.38;;;3.70;99.90;;;;;;5046876;28;20021;-49
2021/04/05 10:59:25;;;;;;;15.55;2.35;;;3.80;99.90;;;;;;5053896;28;20033;-50
2021/04/05 11:01:56;;;;;;;13.32;1.90;;;3.80;99.90;;;;;;5050952;28;20060;-52
2021/04/05 11:04:23;;;;;;;22.25;3.80;;;3.80;99.90;;;;;;5048578;28;20439;-48
2021/04/05 11:06:51;;;;;;;16.92;2.67;;;3.90;99.90;;;;;;5045857;28;20490;-50
2021/04/05 11:09:18;;;;;;;18.95;2.45;;;4.00;99.90;;;;;;5050474;28;20033;-49
2021/04/05 11:11:49;;;;;;;13.05;2.75;;;4.20;99.90;;;;;;5050514;28;20031;-48
2021/04/05 11:14:17;;;;;;;16.27;2.40;;;4.20;99.90;;;;;;5046859;28;20021;-48
2021/04/05 11:16:56;;;;;;;16.63;3.05;;;4.30;99.90;;;;;;5051438;28;20021;-49
2021/04/05 11:19:50;;;;;;;18.92;4.55;;;4.30;99.90;;;;;;5052716;28;20470;-49
2021/04/05 11:22:18;;;;;;;30.47;3.50;;;4.40;99.90;;;;;;5049738;28;20029;-50
2021/04/05 11:24:45;;;;;;;16.75;3.83;;;4.40;99.90;;;;;;5046006;28;20033;-51
2021/04/05 11:27:14;;;;;;;10.95;2.95;;;4.50;99.90;;;;;;5048166;28;20033;-49
2021/04/05 11:29:46;;;;;;;16.98;3.22;;;4.60;99.90;;;;;;5047042;28;20052;-49
2021/04/05 11:32:17;;;;;;;18.33;3.67;;;4.70;99.90;;;;;;5049882;28;20116;-49
2021/04/05 11:34:44;;;;;;;23.67;3.08;;;4.70;99.90;;;;;;5049484;28;20017;-51
2021/04/05 11:37:17;;;;;;;14.00;2.92;;;4.70;99.90;;;;;;5051950;28;20032;-53
2021/04/05 11:39:46;;;;;;;14.20;2.50;;;4.60;99.90;;;;;;5044322;28;20052;-49
2021/04/05 11:42:13;;;;;;;3.38;1.20;;;4.20;99.90;;;;;;5046492;28;20028;-50
2021/04/05 11:44:48;;;;;;;4.97;1.58;;;3.40;99.90;;;;;;5043656;28;20032;-55
2021/04/05 11:47:15;;;;;;;12.60;1.90;;;2.90;99.90;;;;;;5038775;28;20029;-49
2021/04/05 11:49:40;;;;;;;3.55;0.85;;;2.80;99.90;;;;;;5034820;28;20289;-53
2021/04/05 11:52:06;;;;;;;4.53;0.95;;;2.60;99.90;;;;;;5042564;28;20090;-53
2021/04/05 11:54:50;;;;;;;6.93;1.40;;;2.60;99.90;;;;;;5044731;28;20482;-49
2021/04/05 11:57:33;;;;;;;7.82;1.42;;;2.70;99.90;;;;;;5048802;28;20502;-49
2021/04/05 12:00:04;;;;;;;9.55;1.42;;;2.80;99.90;;;;;;5039911;28;20116;-51
2021/04/05 12:02:54;;;;;;;3.08;1.08;;;2.90;99.90;;;;;;5042074;28;20145;-51
2021/04/05 12:05:25;;;;;;;3.17;1.08;;;3.10;99.90;;;;;;5048786;28;20035;-49
2021/04/05 12:08:05;;;;;;;4.45;1.77;;;3.20;99.90;;;;;;5039976;28;20144;-49
2021/04/05 12:10:31;;;;;;;3.88;1.20;;;3.50;99.90;;;;;;5047563;28;20110;-52
2021/04/05 12:13:14;;;;;;;5.05;0.93;;;3.70;99.90;;;;;;5044435;28;20033;-52
2021/04/05 12:15:42;;;;;;;4.93;0.82;;;3.90;99.90;;;;;;5042916;28;20025;-51
2021/04/05 12:18:08;;;;;;;7.75;1.55;;;4.00;99.90;;;;;;5047095;28;20028;-50
2021/04/05 12:20:35;;;;;;;7.25;1.60;;;4.00;99.90;;;;;;5057544;28;20086;-50
2021/04/05 12:23:07;;;;;;;4.70;1.45;;;4.20;99.90;;;;;;5053101;28;20049;-48
2021/04/05 12:25:37;;;;;;;8.95;1.50;;;4.50;99.90;;;;;;5047211;28;20479;-48
2021/04/05 12:28:13;;;;;;;12.13;2.00;;;4.60;99.90;;;;;;5051211;28;20061;-51
2021/04/05 12:30:40;;;;;;;10.07;2.00;;;4.70;99.90;;;;;;5049731;28;20032;-48
2021/04/05 12:33:09;;;;;;;4.82;1.40;;;4.80;99.90;;;;;;5049770;28;20021;-49
2021/04/05 12:35:36;;;;;;;9.30;1.60;;;4.90;99.90;;;;;;5050679;28;20021;-51
2021/04/05 12:38:05;;;;;;;6.10;2.63;;;4.90;99.90;;;;;;5052035;28;20398;-50
2021/04/05 12:40:37;;;;;;;5.00;1.42;;;4.80;99.90;;;;;;5053373;28;20040;-51
2021/04/05 12:43:13;;;;;;;5.45;1.65;;;4.70;99.90;;;;;;5049428;28;20086;-51
2021/04/05 12:45:47;;;;;;;9.98;1.70;;;4.70;99.90;;;;;;5047936;28;20060;-51
2021/04/05 12:48:13;;;;;;;5.55;1.73;;;4.80;99.90;;;;;;5051560;28;20033;-52
2021/04/05 12:50:40;;;;;;;11.68;1.88;;;4.90;99.90;;;;;;5053393;28;20033;-51
2021/04/05 12:53:09;;;;;;;13.38;1.77;;;4.80;99.90;;;;;;5051833;28;20056;-49
2021/04/05 12:55:43;;;;;;;7.22;1.65;;;4.70;99.90;;;;;;5032661;28;20063;-48
2021/04/05 12:58:09;;;;;;;7.97;1.95;;;4.20;99.90;;;;;;5048578;28;20507;-49
2021/04/05 13:00:40;;;;;;;8.40;1.83;;;3.70;99.90;;;;;;5046100;28;20658;-53
2021/04/05 13:03:30;;;;;;;10.35;2.20;;;3.50;99.90;;;;;;5051194;28;20041;-51
2021/04/05 13:05:59;;;;;;;11.55;2.53;;;3.40;99.90;;;;;;5049657;28;20040;-54
2021/04/05 13:08:48;;;;;;;22.33;2.35;;;3.20;99.90;;;;;;5039953;28;20033;-52
2021/04/05 13:11:13;;;;;;;14.30;2.22;;;3.10;99.90;;;;;;5044477;28;20025;-51
2021/04/05 13:13:48;;;;;;;13.65;2.65;;;3.20;99.90;;;;;;5053890;28;20044;-51
2021/04/05 13:16:31;;;;;;;7.25;1.70;;;3.40;99.90;;;;;;5051566;28;20482;-50